Главная страница
METAR-TAF:

METAR-TAF

Аэропорты :

Каир, Египет

широта: 30-08N, долгота: 031-24E, высота над уровнем моря: 64 м

Текущие метеонаблюдения

Эта сводка был подготовлена 14 минут назад, в 02:00 UTC
Ветер 11 Узел от восточно-северо-восточный
Температура 19°C
Влажность 37%
Давление 1013 hPa
Видимость 10 км и более
Нет облачности ниже 1500 м, и нет кучево-дождевой облачности

METAR: HECA 040200Z 07011KT CAVOK 19/04 Q1013 NOSIG

Время: 04:14 (02:14 UTC)

Прогноз

Эта сводка был подготовлена 3 часа и 21 минут назад, в 22:53 UTC
Прогноз действительный с 03-го 23 UTC до 04-го 24 UTC
Ветер 11 Узел от восточный
Видимость: 6000 м
временами
С 04-го 08 UTC до 04-го 18 UTC
Ветер 10 Узел от южный с порывами до 20 Узел
Рассеянная облачность на высоте 2500 фута

TAF: HECA 032253Z 0323/0424 10011KT 6000 NSC TEMPO 0408/0418 19010G20KT 4000SA BKN025

Метеонаблюдения и прогнозы для более 4000 аэропортов (сводки METAR и TAF).

Имеющиеся станции представлены на карте желтыми и красными точками.

Чтобы увидеть название станции, наведите на нее мышь.

Затем щелкните, чтобы увидеть метеонаблюдения и метеопрогнозы.

Управление картой: чтобы увеличить масштаб, щелкните зеленые кнопки с черным крестиком; чтобы уменьшить масштаб, щелкните зеленую кнопку с тире; для просмотра соседних карт щелкайте зеленые стрелки.


METAR-TAF: